sensor_id;sensor_type;location;lat;lon;timestamp;P1;durP1;ratioP1;P2;durP2;ratioP2
7707;SDS011;3896;48.758;8.888;2024-01-16T00:01:20;4.80;;;3.23;;
7707;SDS011;3896;48.758;8.888;2024-01-16T00:03:45;3.87;;;3.10;;
7707;SDS011;3896;48.758;8.888;2024-01-16T00:06:11;6.10;;;3.30;;
7707;SDS011;3896;48.758;8.888;2024-01-16T00:08:37;4.30;;;2.80;;
7707;SDS011;3896;48.758;8.888;2024-01-16T00:11:02;3.50;;;2.93;;
7707;SDS011;3896;48.758;8.888;2024-01-16T00:13:28;3.23;;;2.90;;
7707;SDS011;3896;48.758;8.888;2024-01-16T00:15:54;3.67;;;2.80;;
7707;SDS011;3896;48.758;8.888;2024-01-16T00:18:21;3.80;;;3.27;;
7707;SDS011;3896;48.758;8.888;2024-01-16T00:20:47;4.53;;;3.00;;
7707;SDS011;3896;48.758;8.888;2024-01-16T00:23:12;6.07;;;3.40;;
7707;SDS011;3896;48.758;8.888;2024-01-16T00:25:38;3.73;;;2.83;;
7707;SDS011;3896;48.758;8.888;2024-01-16T00:28:04;2.83;;;2.60;;
7707;SDS011;3896;48.758;8.888;2024-01-16T00:30:29;6.20;;;4.03;;
7707;SDS011;3896;48.758;8.888;2024-01-16T00:32:55;6.83;;;3.77;;
7707;SDS011;3896;48.758;8.888;2024-01-16T00:35:21;4.53;;;2.63;;
7707;SDS011;3896;48.758;8.888;2024-01-16T00:37:46;5.93;;;3.93;;
7707;SDS011;3896;48.758;8.888;2024-01-16T00:40:12;6.10;;;3.07;;
7707;SDS011;3896;48.758;8.888;2024-01-16T00:42:38;8.07;;;4.00;;
7707;SDS011;3896;48.758;8.888;2024-01-16T00:45:04;4.97;;;3.23;;
7707;SDS011;3896;48.758;8.888;2024-01-16T00:47:29;6.33;;;4.17;;
7707;SDS011;3896;48.758;8.888;2024-01-16T00:49:55;10.23;;;5.67;;
7707;SDS011;3896;48.758;8.888;2024-01-16T00:52:21;9.47;;;5.40;;
7707;SDS011;3896;48.758;8.888;2024-01-16T00:54:46;6.33;;;4.40;;
7707;SDS011;3896;48.758;8.888;2024-01-16T00:57:12;8.67;;;4.93;;
7707;SDS011;3896;48.758;8.888;2024-01-16T00:59:40;5.87;;;4.13;;
7707;SDS011;3896;48.758;8.888;2024-01-16T01:02:05;6.97;;;3.80;;
7707;SDS011;3896;48.758;8.888;2024-01-16T01:04:32;4.37;;;3.03;;
7707;SDS011;3896;48.758;8.888;2024-01-16T01:06:58;3.93;;;3.10;;
7707;SDS011;3896;48.758;8.888;2024-01-16T01:09:24;5.10;;;3.27;;
7707;SDS011;3896;48.758;8.888;2024-01-16T01:11:49;6.63;;;3.80;;
7707;SDS011;3896;48.758;8.888;2024-01-16T01:14:15;4.57;;;3.10;;
7707;SDS011;3896;48.758;8.888;2024-01-16T01:16:40;9.33;;;3.63;;
7707;SDS011;3896;48.758;8.888;2024-01-16T01:19:06;7.83;;;3.20;;
7707;SDS011;3896;48.758;8.888;2024-01-16T01:21:32;6.93;;;3.43;;
7707;SDS011;3896;48.758;8.888;2024-01-16T01:23:57;3.37;;;2.90;;
7707;SDS011;3896;48.758;8.888;2024-01-16T01:26:23;8.10;;;3.70;;
7707;SDS011;3896;48.758;8.888;2024-01-16T01:28:48;8.47;;;3.30;;
7707;SDS011;3896;48.758;8.888;2024-01-16T01:31:14;4.97;;;3.50;;
7707;SDS011;3896;48.758;8.888;2024-01-16T01:33:39;6.23;;;3.10;;
7707;SDS011;3896;48.758;8.888;2024-01-16T01:36:05;3.73;;;3.03;;
7707;SDS011;3896;48.758;8.888;2024-01-16T01:38:31;9.00;;;3.03;;
7707;SDS011;3896;48.758;8.888;2024-01-16T01:40:56;6.80;;;2.90;;
7707;SDS011;3896;48.758;8.888;2024-01-16T01:43:23;4.83;;;3.13;;
7707;SDS011;3896;48.758;8.888;2024-01-16T01:48:38;4.33;;;3.23;;
7707;SDS011;3896;48.758;8.888;2024-01-16T01:51:08;6.13;;;3.10;;
7707;SDS011;3896;48.758;8.888;2024-01-16T01:53:38;3.53;;;2.93;;
7707;SDS011;3896;48.758;8.888;2024-01-16T01:56:08;3.57;;;3.07;;
7707;SDS011;3896;48.758;8.888;2024-01-16T01:58:38;4.83;;;3.53;;
7707;SDS011;3896;48.758;8.888;2024-01-16T02:01:04;5.70;;;2.70;;
7707;SDS011;3896;48.758;8.888;2024-01-16T02:03:32;4.83;;;3.37;;
7707;SDS011;3896;48.758;8.888;2024-01-16T02:06:05;4.20;;;3.53;;
7707;SDS011;3896;48.758;8.888;2024-01-16T02:08:31;6.53;;;2.90;;
7707;SDS011;3896;48.758;8.888;2024-01-16T02:10:57;4.13;;;3.07;;
7707;SDS011;3896;48.758;8.888;2024-01-16T02:13:22;10.30;;;3.13;;
7707;SDS011;3896;48.758;8.888;2024-01-16T02:15:48;4.77;;;3.63;;
7707;SDS011;3896;48.758;8.888;2024-01-16T02:18:15;7.80;;;3.40;;
7707;SDS011;3896;48.758;8.888;2024-01-16T02:20:41;3.33;;;2.80;;
7707;SDS011;3896;48.758;8.888;2024-01-16T02:23:07;5.17;;;2.93;;
7707;SDS011;3896;48.758;8.888;2024-01-16T02:25:34;3.37;;;2.87;;
7707;SDS011;3896;48.758;8.888;2024-01-16T02:28:00;5.63;;;3.63;;
7707;SDS011;3896;48.758;8.888;2024-01-16T02:30:27;7.50;;;3.20;;
7707;SDS011;3896;48.758;8.888;2024-01-16T02:32:52;4.43;;;2.80;;
7707;SDS011;3896;48.758;8.888;2024-01-16T02:35:18;4.37;;;3.00;;
7707;SDS011;3896;48.758;8.888;2024-01-16T02:37:44;3.60;;;2.80;;
7707;SDS011;3896;48.758;8.888;2024-01-16T02:40:10;4.20;;;3.20;;
7707;SDS011;3896;48.758;8.888;2024-01-16T02:42:36;6.10;;;3.23;;
7707;SDS011;3896;48.758;8.888;2024-01-16T03:10:58;6.17;;;2.93;;
7707;SDS011;3896;48.758;8.888;2024-01-16T03:13:23;3.80;;;2.60;;
7707;SDS011;3896;48.758;8.888;2024-01-16T03:15:49;3.47;;;2.97;;
7707;SDS011;3896;48.758;8.888;2024-01-16T03:18:15;5.03;;;2.80;;
7707;SDS011;3896;48.758;8.888;2024-01-16T03:20:42;4.93;;;3.07;;
7707;SDS011;3896;48.758;8.888;2024-01-16T03:23:14;2.67;;;2.47;;
7707;SDS011;3896;48.758;8.888;2024-01-16T03:25:39;3.70;;;3.20;;
7707;SDS011;3896;48.758;8.888;2024-01-16T03:28:05;3.67;;;2.40;;
7707;SDS011;3896;48.758;8.888;2024-01-16T03:30:33;3.37;;;2.50;;
7707;SDS011;3896;48.758;8.888;2024-01-16T03:32:58;4.37;;;2.63;;
7707;SDS011;3896;48.758;8.888;2024-01-16T03:35:24;4.40;;;2.77;;
7707;SDS011;3896;48.758;8.888;2024-01-16T03:37:49;2.97;;;2.20;;
7707;SDS011;3896;48.758;8.888;2024-01-16T03:40:15;6.23;;;2.63;;
7707;SDS011;3896;48.758;8.888;2024-01-16T03:42:40;4.20;;;2.70;;
7707;SDS011;3896;48.758;8.888;2024-01-16T03:45:06;3.00;;;2.27;;
7707;SDS011;3896;48.758;8.888;2024-01-16T03:47:32;2.50;;;2.30;;
7707;SDS011;3896;48.758;8.888;2024-01-16T03:49:57;4.73;;;2.67;;
7707;SDS011;3896;48.758;8.888;2024-01-16T03:52:23;3.13;;;2.13;;
7707;SDS011;3896;48.758;8.888;2024-01-16T03:54:48;3.73;;;2.60;;
7707;SDS011;3896;48.758;8.888;2024-01-16T03:57:14;3.40;;;2.30;;
7707;SDS011;3896;48.758;8.888;2024-01-16T03:59:39;5.60;;;2.80;;
7707;SDS011;3896;48.758;8.888;2024-01-16T04:02:05;3.73;;;2.87;;
7707;SDS011;3896;48.758;8.888;2024-01-16T04:04:31;2.57;;;2.23;;
7707;SDS011;3896;48.758;8.888;2024-01-16T04:06:56;3.07;;;2.43;;
7707;SDS011;3896;48.758;8.888;2024-01-16T04:09:22;6.17;;;2.40;;
7707;SDS011;3896;48.758;8.888;2024-01-16T04:11:51;6.33;;;3.10;;
7707;SDS011;3896;48.758;8.888;2024-01-16T04:14:17;5.07;;;2.50;;
7707;SDS011;3896;48.758;8.888;2024-01-16T04:16:43;3.57;;;2.23;;
7707;SDS011;3896;48.758;8.888;2024-01-16T04:19:08;3.50;;;2.17;;
7707;SDS011;3896;48.758;8.888;2024-01-16T04:21:35;3.10;;;2.20;;
7707;SDS011;3896;48.758;8.888;2024-01-16T04:24:01;4.33;;;2.70;;
7707;SDS011;3896;48.758;8.888;2024-01-16T04:26:27;2.17;;;1.97;;
7707;SDS011;3896;48.758;8.888;2024-01-16T04:28:52;4.37;;;2.37;;
7707;SDS011;3896;48.758;8.888;2024-01-16T04:31:18;3.67;;;2.70;;
7707;SDS011;3896;48.758;8.888;2024-01-16T04:33:44;2.77;;;2.27;;
7707;SDS011;3896;48.758;8.888;2024-01-16T04:36:10;2.77;;;2.10;;
7707;SDS011;3896;48.758;8.888;2024-01-16T04:38:35;3.87;;;2.73;;
7707;SDS011;3896;48.758;8.888;2024-01-16T04:41:04;9.70;;;2.47;;
7707;SDS011;3896;48.758;8.888;2024-01-16T04:43:29;1.97;;;1.87;;
7707;SDS011;3896;48.758;8.888;2024-01-16T04:45:55;3.97;;;2.53;;
7707;SDS011;3896;48.758;8.888;2024-01-16T04:48:21;2.20;;;2.00;;
7707;SDS011;3896;48.758;8.888;2024-01-16T04:50:46;2.57;;;1.80;;
7707;SDS011;3896;48.758;8.888;2024-01-16T04:53:12;3.80;;;2.40;;
7707;SDS011;3896;48.758;8.888;2024-01-16T04:55:38;6.00;;;1.90;;
7707;SDS011;3896;48.758;8.888;2024-01-16T04:58:03;4.13;;;2.40;;
7707;SDS011;3896;48.758;8.888;2024-01-16T05:00:30;4.03;;;2.53;;
7707;SDS011;3896;48.758;8.888;2024-01-16T05:02:56;3.27;;;2.37;;
7707;SDS011;3896;48.758;8.888;2024-01-16T05:05:21;2.03;;;1.80;;
7707;SDS011;3896;48.758;8.888;2024-01-16T05:07:47;5.57;;;2.53;;
7707;SDS011;3896;48.758;8.888;2024-01-16T05:10:12;2.53;;;2.13;;
7707;SDS011;3896;48.758;8.888;2024-01-16T05:12:38;2.37;;;2.17;;
7707;SDS011;3896;48.758;8.888;2024-01-16T05:15:05;4.50;;;2.17;;
7707;SDS011;3896;48.758;8.888;2024-01-16T05:17:31;2.63;;;1.97;;
7707;SDS011;3896;48.758;8.888;2024-01-16T05:19:57;2.10;;;1.97;;
7707;SDS011;3896;48.758;8.888;2024-01-16T05:22:23;3.33;;;2.43;;
7707;SDS011;3896;48.758;8.888;2024-01-16T05:24:50;3.03;;;2.60;;
7707;SDS011;3896;48.758;8.888;2024-01-16T05:27:16;2.83;;;2.00;;
7707;SDS011;3896;48.758;8.888;2024-01-16T05:29:41;2.40;;;2.20;;
7707;SDS011;3896;48.758;8.888;2024-01-16T05:32:07;2.37;;;2.17;;
7707;SDS011;3896;48.758;8.888;2024-01-16T05:34:32;4.37;;;2.67;;
7707;SDS011;3896;48.758;8.888;2024-01-16T05:36:58;5.57;;;2.50;;
7707;SDS011;3896;48.758;8.888;2024-01-16T05:39:23;2.67;;;2.33;;
7707;SDS011;3896;48.758;8.888;2024-01-16T05:41:49;3.07;;;2.50;;
7707;SDS011;3896;48.758;8.888;2024-01-16T05:44:15;3.13;;;2.60;;
7707;SDS011;3896;48.758;8.888;2024-01-16T05:46:41;5.23;;;2.37;;
7707;SDS011;3896;48.758;8.888;2024-01-16T05:49:06;3.73;;;2.67;;
7707;SDS011;3896;48.758;8.888;2024-01-16T05:51:32;2.87;;;2.30;;
7707;SDS011;3896;48.758;8.888;2024-01-16T05:53:57;4.10;;;2.57;;
7707;SDS011;3896;48.758;8.888;2024-01-16T05:56:23;3.17;;;2.50;;
7707;SDS011;3896;48.758;8.888;2024-01-16T05:58:49;3.00;;;2.40;;
7707;SDS011;3896;48.758;8.888;2024-01-16T06:01:14;7.53;;;2.93;;
7707;SDS011;3896;48.758;8.888;2024-01-16T06:03:40;2.93;;;2.60;;
7707;SDS011;3896;48.758;8.888;2024-01-16T06:06:06;4.57;;;2.60;;
7707;SDS011;3896;48.758;8.888;2024-01-16T06:08:33;6.73;;;2.13;;
7707;SDS011;3896;48.758;8.888;2024-01-16T06:10:59;3.47;;;3.20;;
7707;SDS011;3896;48.758;8.888;2024-01-16T06:13:24;7.40;;;2.80;;
7707;SDS011;3896;48.758;8.888;2024-01-16T06:15:50;3.03;;;2.30;;
7707;SDS011;3896;48.758;8.888;2024-01-16T06:18:15;5.77;;;2.70;;
7707;SDS011;3896;48.758;8.888;2024-01-16T06:20:41;5.93;;;2.33;;
7707;SDS011;3896;48.758;8.888;2024-01-16T06:23:06;3.90;;;2.60;;
7707;SDS011;3896;48.758;8.888;2024-01-16T06:25:32;4.97;;;2.63;;
7707;SDS011;3896;48.758;8.888;2024-01-16T06:27:57;3.60;;;2.60;;
7707;SDS011;3896;48.758;8.888;2024-01-16T06:30:23;4.07;;;2.57;;
7707;SDS011;3896;48.758;8.888;2024-01-16T06:32:49;3.30;;;2.73;;
7707;SDS011;3896;48.758;8.888;2024-01-16T06:35:15;7.30;;;3.13;;
7707;SDS011;3896;48.758;8.888;2024-01-16T06:37:41;7.03;;;3.17;;
7707;SDS011;3896;48.758;8.888;2024-01-16T06:40:07;2.60;;;2.03;;
7707;SDS011;3896;48.758;8.888;2024-01-16T06:42:33;5.27;;;3.30;;
7707;SDS011;3896;48.758;8.888;2024-01-16T06:44:58;3.63;;;2.60;;
7707;SDS011;3896;48.758;8.888;2024-01-16T06:47:24;2.63;;;2.20;;
7707;SDS011;3896;48.758;8.888;2024-01-16T06:49:49;5.27;;;2.87;;
7707;SDS011;3896;48.758;8.888;2024-01-16T06:52:15;5.57;;;3.67;;
7707;SDS011;3896;48.758;8.888;2024-01-16T06:54:40;2.87;;;2.63;;
7707;SDS011;3896;48.758;8.888;2024-01-16T06:57:06;5.33;;;3.37;;
7707;SDS011;3896;48.758;8.888;2024-01-16T06:59:32;6.10;;;2.77;;
7707;SDS011;3896;48.758;8.888;2024-01-16T07:01:57;6.17;;;3.70;;
7707;SDS011;3896;48.758;8.888;2024-01-16T07:04:23;4.77;;;3.40;;
7707;SDS011;3896;48.758;8.888;2024-01-16T07:06:48;5.97;;;3.10;;
7707;SDS011;3896;48.758;8.888;2024-01-16T07:09:14;6.00;;;2.90;;
7707;SDS011;3896;48.758;8.888;2024-01-16T07:11:41;9.57;;;3.37;;
7707;SDS011;3896;48.758;8.888;2024-01-16T07:14:07;4.27;;;2.40;;
7707;SDS011;3896;48.758;8.888;2024-01-16T07:16:34;4.00;;;2.80;;
7707;SDS011;3896;48.758;8.888;2024-01-16T07:19:00;2.40;;;2.20;;
7707;SDS011;3896;48.758;8.888;2024-01-16T07:21:27;3.57;;;2.40;;
7707;SDS011;3896;48.758;8.888;2024-01-16T07:23:53;9.27;;;3.00;;
7707;SDS011;3896;48.758;8.888;2024-01-16T07:26:19;3.67;;;2.87;;
7707;SDS011;3896;48.758;8.888;2024-01-16T07:28:44;2.87;;;2.10;;
7707;SDS011;3896;48.758;8.888;2024-01-16T07:31:13;4.13;;;2.70;;
7707;SDS011;3896;48.758;8.888;2024-01-16T07:33:39;4.23;;;3.07;;
7707;SDS011;3896;48.758;8.888;2024-01-16T07:36:05;3.53;;;2.50;;
7707;SDS011;3896;48.758;8.888;2024-01-16T07:38:31;3.23;;;2.27;;
7707;SDS011;3896;48.758;8.888;2024-01-16T07:40:57;3.30;;;2.53;;
7707;SDS011;3896;48.758;8.888;2024-01-16T07:43:23;6.07;;;2.00;;
7707;SDS011;3896;48.758;8.888;2024-01-16T07:45:48;6.37;;;2.43;;
7707;SDS011;3896;48.758;8.888;2024-01-16T07:48:14;4.40;;;2.70;;
7707;SDS011;3896;48.758;8.888;2024-01-16T07:50:40;3.93;;;2.50;;
7707;SDS011;3896;48.758;8.888;2024-01-16T07:53:05;2.53;;;2.17;;
7707;SDS011;3896;48.758;8.888;2024-01-16T07:55:31;4.20;;;3.17;;
7707;SDS011;3896;48.758;8.888;2024-01-16T07:57:56;2.87;;;2.37;;
7707;SDS011;3896;48.758;8.888;2024-01-16T08:00:22;4.90;;;2.23;;
7707;SDS011;3896;48.758;8.888;2024-01-16T08:02:47;6.17;;;3.10;;
7707;SDS011;3896;48.758;8.888;2024-01-16T08:05:13;6.50;;;2.60;;
7707;SDS011;3896;48.758;8.888;2024-01-16T08:07:41;3.53;;;2.30;;
7707;SDS011;3896;48.758;8.888;2024-01-16T08:10:08;3.87;;;3.00;;
7707;SDS011;3896;48.758;8.888;2024-01-16T08:12:34;4.73;;;2.83;;
7707;SDS011;3896;48.758;8.888;2024-01-16T08:14:59;4.60;;;2.77;;
7707;SDS011;3896;48.758;8.888;2024-01-16T08:17:25;4.33;;;2.63;;
7707;SDS011;3896;48.758;8.888;2024-01-16T08:19:50;3.87;;;2.67;;
7707;SDS011;3896;48.758;8.888;2024-01-16T08:22:16;6.37;;;3.17;;
7707;SDS011;3896;48.758;8.888;2024-01-16T08:24:41;6.20;;;3.13;;
7707;SDS011;3896;48.758;8.888;2024-01-16T08:27:07;3.30;;;2.80;;
7707;SDS011;3896;48.758;8.888;2024-01-16T08:29:33;6.10;;;3.63;;
7707;SDS011;3896;48.758;8.888;2024-01-16T08:31:59;2.27;;;1.73;;
7707;SDS011;3896;48.758;8.888;2024-01-16T08:34:24;5.90;;;3.03;;
7707;SDS011;3896;48.758;8.888;2024-01-16T08:36:50;7.20;;;3.93;;
7707;SDS011;3896;48.758;8.888;2024-01-16T08:39:15;3.67;;;3.10;;
7707;SDS011;3896;48.758;8.888;2024-01-16T08:41:41;6.27;;;3.60;;
7707;SDS011;3896;48.758;8.888;2024-01-16T08:44:07;4.80;;;3.27;;
7707;SDS011;3896;48.758;8.888;2024-01-16T08:46:32;7.60;;;4.43;;
7707;SDS011;3896;48.758;8.888;2024-01-16T08:48:58;7.23;;;3.17;;
7707;SDS011;3896;48.758;8.888;2024-01-16T08:51:23;3.37;;;2.43;;
7707;SDS011;3896;48.758;8.888;2024-01-16T08:53:51;2.57;;;2.27;;
7707;SDS011;3896;48.758;8.888;2024-01-16T08:56:16;3.30;;;2.07;;
7707;SDS011;3896;48.758;8.888;2024-01-16T08:58:42;5.80;;;3.47;;
7707;SDS011;3896;48.758;8.888;2024-01-16T09:01:08;6.73;;;3.67;;
7707;SDS011;3896;48.758;8.888;2024-01-16T09:03:35;6.00;;;3.63;;
7707;SDS011;3896;48.758;8.888;2024-01-16T09:06:01;7.03;;;3.63;;
7707;SDS011;3896;48.758;8.888;2024-01-16T09:08:27;4.73;;;3.17;;
7707;SDS011;3896;48.758;8.888;2024-01-16T09:10:54;5.53;;;3.27;;
7707;SDS011;3896;48.758;8.888;2024-01-16T09:13:21;3.87;;;2.93;;
7707;SDS011;3896;48.758;8.888;2024-01-16T09:15:48;8.47;;;3.77;;
7707;SDS011;3896;48.758;8.888;2024-01-16T09:18:14;5.10;;;3.30;;
7707;SDS011;3896;48.758;8.888;2024-01-16T09:20:41;4.70;;;3.73;;
7707;SDS011;3896;48.758;8.888;2024-01-16T09:23:07;5.40;;;2.87;;
7707;SDS011;3896;48.758;8.888;2024-01-16T09:25:33;5.83;;;2.80;;
7707;SDS011;3896;48.758;8.888;2024-01-16T09:28:00;5.03;;;3.90;;
7707;SDS011;3896;48.758;8.888;2024-01-16T09:30:25;5.37;;;3.57;;
7707;SDS011;3896;48.758;8.888;2024-01-16T09:32:51;5.70;;;3.00;;
7707;SDS011;3896;48.758;8.888;2024-01-16T09:35:17;4.40;;;2.77;;
7707;SDS011;3896;48.758;8.888;2024-01-16T09:37:42;3.57;;;2.50;;
7707;SDS011;3896;48.758;8.888;2024-01-16T09:40:08;6.27;;;3.43;;
7707;SDS011;3896;48.758;8.888;2024-01-16T09:42:35;3.73;;;2.97;;
7707;SDS011;3896;48.758;8.888;2024-01-16T09:45:00;5.03;;;3.10;;
7707;SDS011;3896;48.758;8.888;2024-01-16T09:47:32;4.17;;;2.90;;
7707;SDS011;3896;48.758;8.888;2024-01-16T09:49:59;8.13;;;3.10;;
7707;SDS011;3896;48.758;8.888;2024-01-16T09:52:26;4.87;;;3.17;;
7707;SDS011;3896;48.758;8.888;2024-01-16T09:54:52;6.33;;;2.60;;
7707;SDS011;3896;48.758;8.888;2024-01-16T09:57:18;4.90;;;3.27;;
7707;SDS011;3896;48.758;8.888;2024-01-16T09:59:47;5.20;;;3.13;;
7707;SDS011;3896;48.758;8.888;2024-01-16T10:02:13;4.20;;;2.67;;
7707;SDS011;3896;48.758;8.888;2024-01-16T10:04:41;4.57;;;3.87;;
7707;SDS011;3896;48.758;8.888;2024-01-16T10:07:06;7.37;;;3.37;;
7707;SDS011;3896;48.758;8.888;2024-01-16T10:09:34;4.70;;;4.10;;
7707;SDS011;3896;48.758;8.888;2024-01-16T10:12:00;4.37;;;3.27;;
7707;SDS011;3896;48.758;8.888;2024-01-16T10:14:26;4.10;;;3.27;;
7707;SDS011;3896;48.758;8.888;2024-01-16T10:17:02;5.77;;;3.27;;
7707;SDS011;3896;48.758;8.888;2024-01-16T10:19:34;7.00;;;2.70;;
7707;SDS011;3896;48.758;8.888;2024-01-16T10:22:03;5.67;;;3.40;;
7707;SDS011;3896;48.758;8.888;2024-01-16T10:24:30;4.03;;;2.93;;
7707;SDS011;3896;48.758;8.888;2024-01-16T10:26:59;4.47;;;3.23;;
7707;SDS011;3896;48.758;8.888;2024-01-16T10:29:26;2.80;;;2.50;;
7707;SDS011;3896;48.758;8.888;2024-01-16T10:31:52;6.00;;;3.00;;
7707;SDS011;3896;48.758;8.888;2024-01-16T10:34:21;4.73;;;3.53;;
7707;SDS011;3896;48.758;8.888;2024-01-16T10:36:50;4.17;;;3.10;;
7707;SDS011;3896;48.758;8.888;2024-01-16T10:39:17;5.90;;;2.77;;
7707;SDS011;3896;48.758;8.888;2024-01-16T10:41:56;5.67;;;2.93;;
7707;SDS011;3896;48.758;8.888;2024-01-16T10:44:22;4.97;;;2.97;;
7707;SDS011;3896;48.758;8.888;2024-01-16T10:46:48;4.87;;;3.40;;
7707;SDS011;3896;48.758;8.888;2024-01-16T10:49:14;5.40;;;2.90;;
7707;SDS011;3896;48.758;8.888;2024-01-16T10:51:42;3.97;;;2.73;;
7707;SDS011;3896;48.758;8.888;2024-01-16T10:54:09;5.47;;;3.17;;
7707;SDS011;3896;48.758;8.888;2024-01-16T10:56:38;6.73;;;2.83;;
7707;SDS011;3896;48.758;8.888;2024-01-16T10:59:22;4.07;;;2.70;;
7707;SDS011;3896;48.758;8.888;2024-01-16T11:01:51;3.57;;;2.43;;
7707;SDS011;3896;48.758;8.888;2024-01-16T11:04:21;4.50;;;2.73;;
7707;SDS011;3896;48.758;8.888;2024-01-16T11:06:50;5.53;;;2.83;;
7707;SDS011;3896;48.758;8.888;2024-01-16T11:09:19;4.73;;;2.90;;
7707;SDS011;3896;48.758;8.888;2024-01-16T11:11:45;4.33;;;3.30;;
7707;SDS011;3896;48.758;8.888;2024-01-16T11:14:12;4.43;;;2.73;;
7707;SDS011;3896;48.758;8.888;2024-01-16T11:16:39;4.60;;;2.53;;
7707;SDS011;3896;48.758;8.888;2024-01-16T11:19:07;5.93;;;2.63;;
7707;SDS011;3896;48.758;8.888;2024-01-16T11:21:35;4.67;;;2.30;;
7707;SDS011;3896;48.758;8.888;2024-01-16T11:24:02;3.57;;;2.40;;
7707;SDS011;3896;48.758;8.888;2024-01-16T11:26:31;2.90;;;1.97;;
7707;SDS011;3896;48.758;8.888;2024-01-16T11:28:58;3.40;;;2.13;;
7707;SDS011;3896;48.758;8.888;2024-01-16T11:31:29;2.73;;;2.03;;
7707;SDS011;3896;48.758;8.888;2024-01-16T11:33:59;3.77;;;2.17;;
7707;SDS011;3896;48.758;8.888;2024-01-16T11:39:17;3.07;;;2.30;;
7707;SDS011;3896;48.758;8.888;2024-01-16T11:41:54;2.00;;;1.83;;
7707;SDS011;3896;48.758;8.888;2024-01-16T11:47:09;2.73;;;2.20;;
7707;SDS011;3896;48.758;8.888;2024-01-16T11:49:41;2.30;;;1.93;;
7707;SDS011;3896;48.758;8.888;2024-01-16T11:52:06;2.47;;;2.03;;
7707;SDS011;3896;48.758;8.888;2024-01-16T11:54:32;2.77;;;2.30;;
7707;SDS011;3896;48.758;8.888;2024-01-16T12:00:18;4.47;;;1.70;;
7707;SDS011;3896;48.758;8.888;2024-01-16T12:02:55;3.27;;;2.47;;
7707;SDS011;3896;48.758;8.888;2024-01-16T12:05:21;3.70;;;2.13;;
7707;SDS011;3896;48.758;8.888;2024-01-16T12:07:50;2.47;;;2.07;;
7707;SDS011;3896;48.758;8.888;2024-01-16T12:10:18;2.43;;;2.00;;
7707;SDS011;3896;48.758;8.888;2024-01-16T12:12:45;1.73;;;1.63;;
7707;SDS011;3896;48.758;8.888;2024-01-16T12:20:19;3.30;;;1.90;;
7707;SDS011;3896;48.758;8.888;2024-01-16T12:22:45;3.33;;;2.03;;
7707;SDS011;3896;48.758;8.888;2024-01-16T12:25:10;4.97;;;2.00;;
7707;SDS011;3896;48.758;8.888;2024-01-16T12:27:37;1.23;;;1.23;;
7707;SDS011;3896;48.758;8.888;2024-01-16T12:30:09;3.87;;;2.00;;
7707;SDS011;3896;48.758;8.888;2024-01-16T12:32:35;2.40;;;1.87;;
7707;SDS011;3896;48.758;8.888;2024-01-16T12:35:01;3.67;;;1.60;;
7707;SDS011;3896;48.758;8.888;2024-01-16T12:37:27;2.40;;;1.80;;
7707;SDS011;3896;48.758;8.888;2024-01-16T12:39:53;2.30;;;1.23;;
7707;SDS011;3896;48.758;8.888;2024-01-16T12:42:18;2.03;;;1.10;;
7707;SDS011;3896;48.758;8.888;2024-01-16T12:44:44;1.40;;;1.30;;
7707;SDS011;3896;48.758;8.888;2024-01-16T12:47:14;3.43;;;1.77;;
7707;SDS011;3896;48.758;8.888;2024-01-16T12:49:41;3.07;;;1.60;;
7707;SDS011;3896;48.758;8.888;2024-01-16T12:52:22;5.33;;;2.10;;
7707;SDS011;3896;48.758;8.888;2024-01-16T12:55:00;2.80;;;2.10;;
7707;SDS011;3896;48.758;8.888;2024-01-16T12:57:26;5.87;;;2.40;;
7707;SDS011;3896;48.758;8.888;2024-01-16T12:59:52;5.27;;;2.60;;
7707;SDS011;3896;48.758;8.888;2024-01-16T13:02:21;4.73;;;2.30;;
7707;SDS011;3896;48.758;8.888;2024-01-16T13:04:48;2.73;;;2.53;;
7707;SDS011;3896;48.758;8.888;2024-01-16T13:07:21;2.47;;;1.60;;
7707;SDS011;3896;48.758;8.888;2024-01-16T13:09:47;1.67;;;1.57;;
7707;SDS011;3896;48.758;8.888;2024-01-16T13:12:19;1.33;;;1.13;;
7707;SDS011;3896;48.758;8.888;2024-01-16T13:14:44;1.60;;;1.33;;
7707;SDS011;3896;48.758;8.888;2024-01-16T13:17:10;2.50;;;1.30;;
7707;SDS011;3896;48.758;8.888;2024-01-16T13:19:37;1.80;;;1.47;;
7707;SDS011;3896;48.758;8.888;2024-01-16T13:22:02;3.50;;;1.43;;
7707;SDS011;3896;48.758;8.888;2024-01-16T13:24:29;3.07;;;1.93;;
7707;SDS011;3896;48.758;8.888;2024-01-16T13:26:54;2.47;;;1.47;;
7707;SDS011;3896;48.758;8.888;2024-01-16T13:29:20;1.53;;;1.10;;
7707;SDS011;3896;48.758;8.888;2024-01-16T13:31:45;2.87;;;1.70;;
7707;SDS011;3896;48.758;8.888;2024-01-16T13:34:11;2.07;;;1.27;;
7707;SDS011;3896;48.758;8.888;2024-01-16T13:36:37;4.80;;;1.33;;
7707;SDS011;3896;48.758;8.888;2024-01-16T13:39:02;1.30;;;1.20;;
7707;SDS011;3896;48.758;8.888;2024-01-16T13:41:28;1.90;;;1.70;;
7707;SDS011;3896;48.758;8.888;2024-01-16T13:43:54;2.37;;;1.80;;
7707;SDS011;3896;48.758;8.888;2024-01-16T13:46:19;4.73;;;1.67;;
7707;SDS011;3896;48.758;8.888;2024-01-16T13:48:47;4.27;;;1.83;;
7707;SDS011;3896;48.758;8.888;2024-01-16T13:51:12;2.13;;;1.90;;
7707;SDS011;3896;48.758;8.888;2024-01-16T13:53:38;6.47;;;3.03;;
7707;SDS011;3896;48.758;8.888;2024-01-16T13:56:03;3.60;;;2.30;;
7707;SDS011;3896;48.758;8.888;2024-01-16T13:58:30;4.30;;;2.80;;
7707;SDS011;3896;48.758;8.888;2024-01-16T14:00:56;1.87;;;1.47;;
7707;SDS011;3896;48.758;8.888;2024-01-16T14:03:22;2.20;;;1.40;;
7707;SDS011;3896;48.758;8.888;2024-01-16T14:05:47;4.07;;;1.70;;
7707;SDS011;3896;48.758;8.888;2024-01-16T14:08:13;1.60;;;1.40;;
7707;SDS011;3896;48.758;8.888;2024-01-16T14:10:39;2.43;;;1.57;;
7707;SDS011;3896;48.758;8.888;2024-01-16T14:13:04;1.30;;;1.20;;
7707;SDS011;3896;48.758;8.888;2024-01-16T14:15:31;1.97;;;1.20;;
7707;SDS011;3896;48.758;8.888;2024-01-16T14:17:56;2.40;;;1.40;;
7707;SDS011;3896;48.758;8.888;2024-01-16T14:20:23;1.97;;;1.40;;
7707;SDS011;3896;48.758;8.888;2024-01-16T14:22:51;3.43;;;1.30;;
7707;SDS011;3896;48.758;8.888;2024-01-16T14:25:17;1.50;;;1.40;;
7707;SDS011;3896;48.758;8.888;2024-01-16T14:27:45;1.30;;;1.20;;
7707;SDS011;3896;48.758;8.888;2024-01-16T14:30:14;1.83;;;1.40;;
7707;SDS011;3896;48.758;8.888;2024-01-16T14:32:41;2.53;;;1.63;;
7707;SDS011;3896;48.758;8.888;2024-01-16T14:35:08;1.60;;;1.47;;
7707;SDS011;3896;48.758;8.888;2024-01-16T14:37:37;2.40;;;1.57;;
7707;SDS011;3896;48.758;8.888;2024-01-16T14:40:03;1.67;;;1.57;;
7707;SDS011;3896;48.758;8.888;2024-01-16T14:42:41;1.37;;;1.17;;
7707;SDS011;3896;48.758;8.888;2024-01-16T14:45:12;2.43;;;1.70;;
7707;SDS011;3896;48.758;8.888;2024-01-16T14:47:38;1.80;;;1.70;;
7707;SDS011;3896;48.758;8.888;2024-01-16T14:50:04;2.07;;;1.70;;
7707;SDS011;3896;48.758;8.888;2024-01-16T14:52:31;1.93;;;1.40;;
7707;SDS011;3896;48.758;8.888;2024-01-16T14:54:57;2.20;;;1.60;;
7707;SDS011;3896;48.758;8.888;2024-01-16T14:57:26;1.73;;;1.63;;
7707;SDS011;3896;48.758;8.888;2024-01-16T14:59:52;1.60;;;1.50;;
7707;SDS011;3896;48.758;8.888;2024-01-16T15:02:18;1.40;;;1.30;;
7707;SDS011;3896;48.758;8.888;2024-01-16T15:04:45;1.30;;;1.20;;
7707;SDS011;3896;48.758;8.888;2024-01-16T15:07:11;1.87;;;1.77;;
7707;SDS011;3896;48.758;8.888;2024-01-16T15:09:37;1.50;;;1.40;;
7707;SDS011;3896;48.758;8.888;2024-01-16T15:12:06;2.80;;;1.33;;
7707;SDS011;3896;48.758;8.888;2024-01-16T15:14:32;2.47;;;1.53;;
7707;SDS011;3896;48.758;8.888;2024-01-16T15:16:58;2.67;;;1.67;;
7707;SDS011;3896;48.758;8.888;2024-01-16T15:19:25;1.97;;;1.80;;
7707;SDS011;3896;48.758;8.888;2024-01-16T15:21:51;1.60;;;1.50;;
7707;SDS011;3896;48.758;8.888;2024-01-16T15:24:16;1.43;;;1.37;;
7707;SDS011;3896;48.758;8.888;2024-01-16T15:26:51;2.40;;;1.60;;
7707;SDS011;3896;48.758;8.888;2024-01-16T15:29:17;2.20;;;1.27;;
7707;SDS011;3896;48.758;8.888;2024-01-16T15:31:42;3.13;;;2.00;;
7707;SDS011;3896;48.758;8.888;2024-01-16T15:34:08;1.30;;;1.20;;
7707;SDS011;3896;48.758;8.888;2024-01-16T15:36:34;2.27;;;1.73;;
7707;SDS011;3896;48.758;8.888;2024-01-16T15:38:59;3.13;;;1.87;;
7707;SDS011;3896;48.758;8.888;2024-01-16T15:41:27;3.47;;;1.63;;
7707;SDS011;3896;48.758;8.888;2024-01-16T15:43:52;1.50;;;1.40;;
7707;SDS011;3896;48.758;8.888;2024-01-16T15:46:18;1.67;;;1.43;;
7707;SDS011;3896;48.758;8.888;2024-01-16T15:48:43;2.53;;;1.60;;
7707;SDS011;3896;48.758;8.888;2024-01-16T15:51:09;4.23;;;2.40;;
7707;SDS011;3896;48.758;8.888;2024-01-16T15:53:35;2.53;;;1.80;;